createdAt,value
2023-04-26T00:00:51.244Z,65.88
2023-04-26T00:01:51.241Z,66.08
2023-04-26T00:02:51.391Z,66.08
2023-04-26T00:03:51.456Z,66.08
2023-04-26T00:04:51.452Z,66.08
2023-04-26T00:05:51.302Z,66.08
2023-04-26T00:06:51.178Z,66.08
2023-04-26T00:07:51.188Z,65.98
2023-04-26T00:08:51.394Z,66.39
2023-04-26T00:09:51.167Z,66.28
2023-04-26T00:10:51.158Z,66.39
2023-04-26T00:11:51.125Z,66.49
2023-04-26T00:12:51.121Z,66.60
2023-04-26T00:13:51.085Z,66.60
2023-04-26T00:14:51.060Z,66.60
2023-04-26T00:15:51.107Z,66.60
2023-04-26T00:16:51.129Z,66.70
2023-04-26T00:17:51.131Z,66.49
2023-04-26T00:18:51.217Z,66.39
2023-04-26T00:19:51.017Z,66.49
2023-04-26T00:20:51.013Z,66.39
2023-04-26T00:21:51.050Z,66.60
2023-04-26T00:22:51.045Z,66.60
2023-04-26T00:23:50.982Z,66.60
2023-04-26T00:24:50.984Z,66.70
2023-04-26T00:25:50.951Z,66.39
2023-04-26T00:26:50.964Z,66.39
2023-04-26T00:27:50.930Z,66.49
2023-04-26T00:28:51.114Z,66.60
2023-04-26T00:29:50.919Z,66.60
2023-04-26T00:30:50.887Z,66.49
2023-04-26T00:31:50.951Z,66.39
2023-04-26T00:32:50.934Z,66.60
2023-04-26T00:33:50.896Z,66.63
2023-04-26T00:34:50.873Z,66.63
2023-04-26T00:35:50.831Z,66.52
2023-04-26T00:36:50.815Z,66.63
2023-04-26T00:37:50.927Z,66.63
2023-04-26T00:38:51.251Z,66.94
2023-04-26T00:39:50.817Z,66.63
2023-04-26T00:40:50.773Z,66.42
2023-04-26T00:41:50.751Z,66.52
2023-04-26T00:42:50.760Z,66.63
2023-04-26T00:43:50.766Z,66.63
2023-04-26T00:44:50.771Z,66.42
2023-04-26T00:45:50.738Z,66.31
2023-04-26T00:46:50.711Z,66.42
2023-04-26T00:47:50.722Z,66.42
2023-04-26T00:48:50.954Z,66.42
2023-04-26T00:49:50.659Z,66.31
2023-04-26T00:50:50.684Z,66.21
2023-04-26T00:51:50.631Z,66.11
2023-04-26T00:52:50.717Z,66.52
2023-04-26T00:53:50.631Z,66.42
2023-04-26T00:54:50.610Z,66.94
2023-04-26T00:55:50.651Z,66.83
2023-04-26T00:56:50.583Z,66.73
2023-04-26T00:57:50.579Z,66.83
2023-04-26T00:58:50.857Z,66.73
2023-04-26T00:59:50.556Z,66.63
2023-04-26T01:00:50.543Z,66.97
2023-04-26T01:01:50.522Z,66.97
2023-04-26T01:02:50.653Z,67.27
2023-04-26T01:03:50.632Z,67.48
2023-04-26T01:04:50.525Z,67.27
2023-04-26T01:05:50.490Z,67.38
2023-04-26T01:06:50.469Z,67.48
2023-04-26T01:07:50.451Z,67.58
2023-04-26T01:08:50.641Z,67.48
2023-04-26T01:09:50.440Z,67.27
2023-04-26T01:10:50.413Z,67.48
2023-04-26T01:11:50.428Z,67.79
2023-04-26T01:12:50.399Z,68.00
2023-04-26T01:13:50.378Z,67.79
2023-04-26T01:14:50.411Z,68.00
2023-04-26T01:15:50.377Z,67.79
2023-04-26T01:16:50.422Z,67.82
2023-04-26T01:17:50.364Z,68.13
2023-04-26T01:18:50.620Z,68.24
2023-04-26T01:19:50.319Z,68.44
2023-04-26T01:20:50.359Z,68.54
2023-04-26T01:21:50.286Z,68.54
2023-04-26T01:22:50.268Z,68.65
2023-04-26T01:23:50.260Z,68.75
2023-04-26T01:24:50.300Z,68.85
2023-04-26T01:25:50.240Z,68.75
2023-04-26T01:26:50.277Z,68.75
2023-04-26T01:27:50.218Z,68.75
2023-04-26T01:28:50.399Z,68.65
2023-04-26T01:29:50.202Z,68.75
2023-04-26T01:30:50.296Z,68.88
2023-04-26T01:31:50.181Z,68.88
2023-04-26T01:32:50.212Z,68.99
2023-04-26T01:33:50.156Z,69.09
2023-04-26T01:34:50.133Z,69.30
2023-04-26T01:35:50.177Z,69.51
2023-04-26T01:36:50.127Z,69.40
2023-04-26T01:37:50.094Z,69.51
2023-04-26T01:38:50.386Z,69.61
2023-04-26T01:39:50.110Z,69.71
2023-04-26T01:40:50.067Z,69.71
2023-04-26T01:41:50.111Z,69.71
2023-04-26T01:42:50.047Z,69.82
2023-04-26T01:43:50.033Z,69.92
2023-04-26T01:44:50.045Z,69.92
2023-04-26T01:45:50.115Z,69.92
2023-04-26T01:46:50.043Z,70.12
2023-04-26T01:47:50.003Z,70.37
2023-04-26T01:48:50.208Z,70.37
2023-04-26T01:49:49.995Z,70.47
2023-04-26T01:50:49.941Z,70.47
2023-04-26T01:51:49.955Z,70.57
2023-04-26T01:52:49.932Z,70.57
2023-04-26T01:53:49.943Z,70.47
2023-04-26T01:54:49.893Z,70.47
2023-04-26T01:55:49.890Z,70.57
2023-04-26T01:56:49.989Z,70.57
2023-04-26T01:57:49.846Z,70.67
2023-04-26T01:58:50.069Z,70.78
2023-04-26T01:59:49.833Z,70.57
2023-04-26T02:00:49.845Z,70.67
2023-04-26T02:01:49.860Z,70.67
2023-04-26T02:02:49.950Z,70.57
2023-04-26T02:03:49.902Z,70.67
2023-04-26T02:04:49.850Z,70.78
2023-04-26T02:05:49.766Z,70.67
2023-04-26T02:06:49.771Z,70.78
2023-04-26T02:07:49.763Z,70.88
2023-04-26T02:08:49.916Z,70.88
2023-04-26T02:09:49.749Z,70.78
2023-04-26T02:10:49.720Z,70.98
2023-04-26T02:11:49.727Z,70.92
2023-04-26T02:12:49.745Z,71.02
2023-04-26T02:13:49.701Z,71.22
2023-04-26T02:14:49.652Z,71.33
2023-04-26T02:15:49.689Z,71.64
2023-04-26T02:16:49.638Z,71.74
2023-04-26T02:17:49.759Z,71.64
2023-04-26T02:18:49.972Z,71.64
2023-04-26T02:19:49.613Z,71.74
2023-04-26T02:20:49.601Z,71.84
2023-04-26T02:21:49.583Z,71.84
2023-04-26T02:22:49.591Z,71.95
2023-04-26T02:23:49.559Z,72.05
2023-04-26T02:24:49.553Z,72.05
2023-04-26T02:25:49.560Z,72.05
2023-04-26T02:26:49.516Z,72.05
2023-04-26T02:27:49.545Z,72.19
2023-04-26T02:28:49.577Z,72.05
2023-04-26T02:29:49.470Z,72.16
2023-04-26T02:30:49.482Z,72.26
2023-04-26T02:31:49.571Z,72.19
2023-04-26T02:32:49.490Z,72.16
2023-04-26T02:33:49.464Z,71.95
2023-04-26T02:34:49.438Z,71.98
2023-04-26T02:35:49.410Z,72.08
2023-04-26T02:36:49.388Z,72.29
2023-04-26T02:37:49.374Z,72.29
2023-04-26T02:38:49.560Z,72.50
2023-04-26T02:39:49.371Z,72.19
2023-04-26T02:40:49.355Z,72.08
2023-04-26T02:41:49.325Z,72.29
2023-04-26T02:42:49.360Z,72.39
2023-04-26T02:43:49.320Z,72.33
2023-04-26T02:44:49.323Z,72.39
2023-04-26T02:45:49.287Z,72.43
2023-04-26T02:46:49.416Z,72.53
2023-04-26T02:47:49.324Z,72.43
2023-04-26T02:48:49.359Z,72.33
2023-04-26T02:49:49.273Z,72.33
2023-04-26T02:50:49.233Z,72.53
2023-04-26T02:51:49.225Z,72.43
2023-04-26T02:52:49.255Z,72.43
2023-04-26T02:53:49.201Z,72.12
2023-04-26T02:54:49.227Z,72.12
2023-04-26T02:55:49.196Z,72.33
2023-04-26T02:56:49.151Z,72.33
2023-04-26T02:57:49.163Z,72.43
2023-04-26T02:58:49.384Z,72.53
2023-04-26T02:59:49.128Z,72.33
2023-04-26T03:00:49.181Z,72.53
2023-04-26T03:01:49.132Z,72.64
2023-04-26T03:02:49.204Z,72.74
2023-04-26T03:03:49.129Z,72.74
2023-04-26T03:04:49.078Z,72.74
2023-04-26T03:05:49.044Z,72.85
2023-04-26T03:06:49.064Z,72.94
2023-04-26T03:07:49.059Z,72.94
2023-04-26T03:08:49.030Z,72.64
2023-04-26T03:09:48.998Z,72.53
2023-04-26T03:10:49.044Z,72.56
2023-04-26T03:11:50.192Z,72.77
2023-04-26T03:12:48.978Z,72.88
2023-04-26T03:13:48.942Z,72.77
2023-04-26T03:14:48.941Z,72.88
2023-04-26T03:15:48.936Z,72.98
2023-04-26T03:16:49.019Z,72.98
2023-04-26T03:17:48.963Z,72.88
2023-04-26T03:18:48.998Z,73.08
2023-04-26T03:19:48.899Z,73.19
2023-04-26T03:20:48.879Z,73.19
2023-04-26T03:21:48.892Z,73.29
2023-04-26T03:22:48.837Z,73.50
2023-04-26T03:23:48.859Z,73.32
2023-04-26T03:24:48.841Z,73.29
2023-04-26T03:25:48.824Z,73.29
2023-04-26T03:26:48.843Z,73.32
2023-04-26T03:27:48.817Z,73.32
2023-04-26T03:28:48.786Z,73.43
2023-04-26T03:29:48.771Z,73.53
2023-04-26T03:30:48.767Z,73.43
2023-04-26T03:31:48.823Z,73.53
2023-04-26T03:32:48.806Z,73.63
2023-04-26T03:33:48.708Z,73.74
2023-04-26T03:34:48.771Z,73.94
2023-04-26T03:35:48.709Z,73.84
2023-04-26T03:36:48.694Z,73.94
2023-04-26T03:37:48.713Z,73.94
2023-04-26T03:38:48.673Z,73.94
2023-04-26T03:39:48.657Z,73.84
2023-04-26T03:40:48.685Z,73.74
2023-04-26T03:41:48.617Z,73.74
2023-04-26T03:42:48.624Z,73.94
2023-04-26T03:43:48.623Z,74.05
2023-04-26T03:44:48.572Z,73.84
2023-04-26T03:45:48.670Z,73.63
2023-04-26T03:46:48.555Z,73.77
2023-04-26T03:47:48.644Z,73.67
2023-04-26T03:48:48.547Z,73.98
2023-04-26T03:49:48.524Z,73.98
2023-04-26T03:50:48.687Z,73.88
2023-04-26T03:51:48.516Z,73.98
2023-04-26T03:52:48.501Z,73.88
2023-04-26T03:53:48.495Z,74.05
2023-04-26T03:54:48.475Z,73.84
2023-04-26T03:55:48.453Z,73.77
2023-04-26T03:56:48.515Z,73.57
2023-04-26T03:57:48.414Z,73.77
2023-04-26T03:58:48.435Z,73.57
2023-04-26T03:59:48.415Z,73.57
2023-04-26T04:00:48.411Z,73.77
2023-04-26T04:01:48.404Z,73.46
2023-04-26T04:02:48.529Z,73.57
2023-04-26T04:03:48.613Z,73.77
2023-04-26T04:04:48.465Z,73.88
2023-04-26T04:05:48.327Z,73.67
2023-04-26T04:06:48.313Z,73.67
2023-04-26T04:07:48.326Z,73.77
2023-04-26T04:08:48.356Z,73.46
2023-04-26T04:09:48.279Z,73.67
2023-04-26T04:10:48.262Z,73.67
2023-04-26T04:11:48.289Z,73.57
2023-04-26T04:12:48.235Z,73.46
2023-04-26T04:13:48.236Z,73.25
2023-04-26T04:14:48.253Z,72.84
2023-04-26T04:15:48.248Z,73.05
2023-04-26T04:16:48.227Z,73.15
2023-04-26T04:17:48.272Z,73.15
2023-04-26T04:18:48.202Z,73.05
2023-04-26T04:19:48.172Z,72.84
2023-04-26T04:20:48.159Z,72.63
2023-04-26T04:21:48.162Z,72.71
2023-04-26T04:22:48.181Z,72.71
2023-04-26T04:23:48.130Z,72.60
2023-04-26T04:24:48.131Z,72.39
2023-04-26T04:25:48.115Z,72.29
2023-04-26T04:26:48.084Z,72.39
2023-04-26T04:27:48.076Z,72.39
2023-04-26T04:28:48.101Z,72.29
2023-04-26T04:29:48.069Z,72.19
2023-04-26T04:30:48.105Z,72.29
2023-04-26T04:31:48.054Z,72.08
2023-04-26T04:32:48.022Z,72.19
2023-04-26T04:33:48.030Z,71.98
2023-04-26T04:34:49.580Z,71.98
2023-04-26T04:35:47.981Z,71.98
2023-04-26T04:36:47.992Z,71.84
2023-04-26T04:37:47.952Z,71.67
2023-04-26T04:38:48.000Z,71.67
2023-04-26T04:39:47.927Z,71.77
2023-04-26T04:40:47.948Z,71.63
2023-04-26T04:41:47.947Z,71.46
2023-04-26T04:42:47.882Z,71.36
2023-04-26T04:43:47.903Z,71.46
2023-04-26T04:44:48.019Z,71.53
2023-04-26T04:45:47.856Z,71.33
2023-04-26T04:46:47.876Z,71.33
2023-04-26T04:47:47.902Z,71.33
2023-04-26T04:48:47.817Z,71.22
2023-04-26T04:49:47.803Z,71.33
2023-04-26T04:50:47.848Z,70.91
2023-04-26T04:51:47.781Z,71.01
2023-04-26T04:52:47.776Z,71.12
2023-04-26T04:53:47.736Z,70.91
2023-04-26T04:54:47.752Z,70.91
2023-04-26T04:55:47.794Z,71.12
2023-04-26T04:56:47.714Z,71.22
2023-04-26T04:57:47.714Z,71.22
2023-04-26T04:58:47.729Z,71.19
2023-04-26T04:59:47.688Z,70.98
2023-04-26T05:00:47.748Z,70.77
2023-04-26T05:01:47.708Z,70.67
2023-04-26T05:02:47.842Z,70.67
2023-04-26T05:03:47.709Z,70.67
2023-04-26T05:04:47.698Z,70.77
2023-04-26T05:05:47.625Z,70.87
2023-04-26T05:06:47.626Z,70.98
2023-04-26T05:07:47.576Z,71.08
2023-04-26T05:08:47.590Z,70.77
2023-04-26T05:09:47.562Z,70.67
2023-04-26T05:10:47.572Z,70.57
2023-04-26T05:11:47.604Z,70.67
2023-04-26T05:12:47.539Z,70.77
2023-04-26T05:13:47.537Z,70.67
2023-04-26T05:14:47.507Z,70.98
2023-04-26T05:15:47.597Z,70.95
2023-04-26T05:16:47.678Z,70.53
2023-04-26T05:17:47.515Z,70.32
2023-04-26T05:18:47.491Z,70.22
2023-04-26T05:19:47.457Z,70.12
2023-04-26T05:20:47.434Z,70.12
2023-04-26T05:21:47.490Z,70.12
2023-04-26T05:22:47.437Z,70.12
2023-04-26T05:23:47.407Z,70.01
2023-04-26T05:24:47.412Z,70.12
2023-04-26T05:25:47.385Z,70.19
2023-04-26T05:26:47.417Z,69.98
2023-04-26T05:27:47.354Z,69.78
2023-04-26T05:28:47.337Z,69.98
2023-04-26T05:29:47.318Z,69.47
2023-04-26T05:30:47.350Z,69.57
2023-04-26T05:31:47.353Z,69.37
2023-04-26T05:32:47.402Z,69.57
2023-04-26T05:33:47.286Z,69.47
2023-04-26T05:34:47.269Z,69.57
2023-04-26T05:35:47.284Z,69.47
2023-04-26T05:36:47.252Z,69.33
2023-04-26T05:37:47.265Z,69.12
2023-04-26T05:38:47.252Z,69.23
2023-04-26T05:39:47.205Z,69.12
2023-04-26T05:40:47.192Z,68.82
2023-04-26T05:41:47.186Z,68.82
2023-04-26T05:42:47.242Z,68.58
2023-04-26T05:43:47.150Z,68.27
2023-04-26T05:44:47.171Z,68.27
2023-04-26T05:45:47.191Z,68.48
2023-04-26T05:46:47.129Z,68.27
2023-04-26T05:47:47.141Z,68.06
2023-04-26T05:48:47.151Z,68.06
2023-04-26T05:49:47.138Z,67.85
2023-04-26T05:50:47.092Z,67.44
2023-04-26T05:51:47.079Z,67.34
2023-04-26T05:52:47.087Z,67.13
2023-04-26T05:53:47.049Z,67.24
2023-04-26T05:54:47.036Z,67.13
2023-04-26T05:55:47.061Z,67.13
2023-04-26T05:56:46.988Z,66.79
2023-04-26T05:57:47.066Z,66.58
2023-04-26T05:58:47.010Z,66.48
2023-04-26T05:59:46.972Z,66.38
2023-04-26T06:00:46.986Z,66.17
2023-04-26T06:01:46.930Z,65.94
2023-04-26T06:02:47.096Z,65.73
2023-04-26T06:03:47.145Z,65.73
2023-04-26T06:04:47.078Z,65.76
2023-04-26T06:05:47.094Z,65.83
2023-04-26T06:06:47.006Z,66.14
2023-04-26T06:07:47.868Z,65.52
2023-04-26T06:08:46.860Z,65.11
2023-04-26T06:09:46.851Z,64.59
2023-04-26T06:10:46.893Z,64.18
2023-04-26T06:11:46.813Z,64.07
2023-04-26T06:12:46.804Z,64.04
2023-04-26T06:13:46.812Z,64.15
2023-04-26T06:14:46.794Z,64.04
2023-04-26T06:15:46.835Z,63.50
2023-04-26T06:16:46.843Z,63.60
2023-04-26T06:17:46.816Z,63.57
2023-04-26T06:18:46.753Z,63.06
2023-04-26T06:19:46.747Z,62.85
2023-04-26T06:20:46.741Z,62.85
2023-04-26T06:21:46.761Z,62.75
2023-04-26T06:22:46.683Z,62.75
2023-04-26T06:23:46.716Z,62.24
2023-04-26T06:24:46.692Z,62.54
2023-04-26T06:25:46.684Z,62.44
2023-04-26T06:26:46.642Z,62.44
2023-04-26T06:27:46.686Z,62.21
2023-04-26T06:28:46.639Z,62.10
2023-04-26T06:29:46.601Z,62.07
2023-04-26T06:30:46.722Z,61.35
2023-04-26T06:31:46.641Z,61.25
2023-04-26T06:32:46.593Z,61.46
2023-04-26T06:33:46.608Z,61.87
2023-04-26T06:34:46.560Z,61.56
2023-04-26T06:35:46.569Z,61.46
2023-04-26T06:36:46.536Z,61.05
2023-04-26T06:37:46.518Z,61.05
2023-04-26T06:38:46.568Z,60.81
2023-04-26T06:39:46.509Z,60.47
2023-04-26T06:40:46.481Z,60.06
2023-04-26T06:41:46.515Z,59.99
2023-04-26T06:42:46.471Z,59.58
2023-04-26T06:43:46.474Z,60.12
2023-04-26T06:44:46.466Z,60.02
2023-04-26T06:45:46.437Z,60.30
2023-04-26T06:46:46.552Z,59.61
2023-04-26T06:47:46.507Z,59.50
2023-04-26T06:48:46.416Z,59.78
2023-04-26T06:49:46.417Z,59.45
2023-04-26T06:50:46.389Z,57.39
2023-04-26T06:51:46.354Z,57.59
2023-04-26T06:52:46.364Z,57.26
2023-04-26T06:53:46.375Z,56.31
2023-04-26T06:54:56.130Z,55.26
2023-04-26T06:55:47.345Z,54.95
2023-04-26T06:56:46.283Z,55.08
2023-04-26T06:57:46.290Z,55.41
2023-04-26T06:58:46.258Z,56.59
2023-04-26T06:59:46.313Z,57.73
2023-04-26T07:00:46.246Z,57.82
2023-04-26T07:01:46.294Z,54.79
2023-04-26T07:02:46.376Z,49.05
2023-04-26T07:03:46.325Z,43.99
2023-04-26T07:04:46.442Z,42.49
2023-04-26T07:05:46.246Z,43.81
2023-04-26T07:06:46.178Z,45.43
2023-04-26T07:07:46.181Z,46.94
2023-04-26T07:08:46.141Z,47.97
2023-04-26T07:09:46.175Z,46.84
2023-04-26T07:10:46.121Z,47.91
2023-04-26T07:11:46.173Z,49.08
2023-04-26T07:12:46.137Z,48.99
2023-04-26T07:13:46.090Z,45.43
2023-04-26T07:14:46.092Z,46.72
2023-04-26T07:15:46.138Z,46.96
2023-04-26T07:16:46.251Z,43.41
2023-04-26T07:17:47.132Z,40.22
2023-04-26T07:18:46.051Z,42.22
2023-04-26T07:19:46.033Z,41.58
2023-04-26T07:20:46.026Z,42.13
2023-04-26T07:21:46.013Z,43.20
2023-04-26T07:22:53.716Z,44.34
2023-04-26T07:23:46.056Z,45.02
2023-04-26T07:24:45.998Z,45.96
2023-04-26T07:25:45.989Z,46.12
2023-04-26T07:26:45.943Z,43.51
2023-04-26T07:27:45.936Z,44.79
2023-04-26T07:28:45.932Z,45.84
2023-04-26T07:29:45.969Z,45.88
2023-04-26T07:30:45.895Z,46.56
2023-04-26T07:31:45.933Z,48.16
2023-04-26T07:32:53.625Z,49.85
2023-04-26T07:33:45.893Z,51.10
2023-04-26T07:34:45.861Z,51.18
2023-04-26T07:35:45.901Z,50.85
2023-04-26T07:36:46.872Z,47.41
2023-04-26T07:37:45.851Z,44.81
2023-04-26T07:38:45.803Z,45.78
2023-04-26T07:39:45.813Z,47.48
2023-04-26T07:40:45.815Z,47.68
2023-04-26T07:41:45.829Z,48.24
2023-04-26T07:42:46.670Z,49.08
2023-04-26T07:43:45.766Z,49.69
2023-04-26T07:44:45.753Z,50.13
2023-04-26T07:45:45.722Z,50.54
2023-04-26T07:46:45.721Z,49.68
2023-04-26T07:47:45.788Z,45.43
2023-04-26T07:48:45.699Z,45.96
2023-04-26T07:49:47.620Z,46.39
2023-04-26T07:50:45.658Z,46.84
2023-04-26T07:51:45.674Z,47.58
2023-04-26T07:52:45.652Z,47.52
2023-04-26T07:53:45.653Z,47.88
2023-04-26T07:54:45.624Z,49.10
2023-04-26T07:55:45.633Z,45.39
2023-04-26T07:56:45.607Z,40.42
2023-04-26T07:57:45.611Z,37.10
2023-04-26T07:58:45.594Z,36.25
2023-04-26T07:59:45.574Z,35.43
2023-04-26T08:00:45.574Z,35.88
2023-04-26T08:01:45.592Z,35.61
2023-04-26T08:02:45.849Z,34.69
2023-04-26T08:03:46.049Z,33.86
2023-04-26T08:04:45.678Z,34.33
2023-04-26T08:05:45.793Z,34.95
2023-04-26T08:06:45.488Z,36.97
2023-04-26T08:07:45.460Z,36.59
2023-04-26T08:08:45.473Z,37.70
2023-04-26T08:09:45.478Z,38.95
2023-04-26T08:10:45.430Z,39.40
2023-04-26T08:11:45.467Z,40.53
2023-04-26T08:12:45.413Z,40.88
2023-04-26T08:13:45.417Z,40.84
2023-04-26T08:14:45.452Z,41.71
2023-04-26T08:15:45.389Z,42.76
2023-04-26T08:16:45.463Z,43.12
2023-04-26T08:17:45.391Z,43.38
2023-04-26T08:18:46.959Z,44.31
2023-04-26T08:19:45.356Z,44.23
2023-04-26T08:20:45.340Z,45.04
2023-04-26T08:21:45.371Z,43.90
2023-04-26T08:22:45.304Z,39.64
2023-04-26T08:23:45.298Z,38.45
2023-04-26T08:24:45.268Z,40.12
2023-04-26T08:25:47.716Z,38.88
2023-04-26T08:26:45.315Z,35.50
2023-04-26T08:27:45.223Z,33.95
2023-04-26T08:28:45.223Z,32.82
2023-04-26T08:29:45.218Z,34.53
2023-04-26T08:30:45.239Z,36.60
2023-04-26T08:31:45.196Z,38.38
2023-04-26T08:32:45.247Z,39.65
2023-04-26T08:33:45.187Z,41.02
2023-04-26T08:34:45.164Z,40.92
2023-04-26T08:35:45.170Z,39.78
2023-04-26T08:36:45.130Z,36.47
2023-04-26T08:37:45.126Z,33.63
2023-04-26T08:38:45.121Z,31.82
2023-04-26T08:39:45.094Z,29.74
2023-04-26T08:40:45.108Z,29.86
2023-04-26T08:41:45.069Z,32.59
2023-04-26T08:42:45.055Z,34.78
2023-04-26T08:43:45.080Z,36.99
2023-04-26T08:44:45.090Z,36.92
2023-04-26T08:45:45.039Z,37.36
2023-04-26T08:46:45.045Z,36.76
2023-04-26T08:47:45.050Z,34.70
2023-04-26T08:48:45.027Z,32.20
2023-04-26T08:49:45.013Z,30.10
2023-04-26T08:50:44.973Z,29.03
2023-04-26T08:51:44.996Z,30.82
2023-04-26T08:52:44.952Z,32.31
2023-04-26T08:53:44.972Z,35.02
2023-04-26T08:54:44.925Z,36.39
2023-04-26T08:55:44.924Z,37.75
2023-04-26T08:56:44.913Z,38.40
2023-04-26T08:57:44.957Z,38.96
2023-04-26T08:58:44.873Z,40.01
2023-04-26T08:59:44.880Z,41.49
2023-04-26T09:00:44.877Z,42.22
2023-04-26T09:01:45.146Z,42.43
2023-04-26T09:02:44.933Z,43.47
2023-04-26T09:03:44.965Z,42.94
2023-04-26T09:04:45.022Z,42.34
2023-04-26T09:05:44.849Z,40.78
2023-04-26T09:06:44.790Z,36.95
2023-04-26T09:07:44.773Z,33.81
2023-04-26T09:08:44.809Z,32.84
2023-04-26T09:09:44.749Z,30.64
2023-04-26T09:10:45.206Z,29.88
2023-04-26T09:11:44.781Z,29.82
2023-04-26T09:12:44.768Z,30.26
2023-04-26T09:13:44.781Z,30.15
2023-04-26T09:14:44.729Z,29.94
2023-04-26T09:15:44.731Z,29.09
2023-04-26T09:16:44.799Z,29.09
2023-04-26T09:17:44.684Z,28.04
2023-04-26T09:18:44.687Z,27.50
2023-04-26T09:19:44.648Z,26.57
2023-04-26T09:20:44.644Z,26.46
2023-04-26T09:21:44.621Z,25.34
2023-04-26T09:22:44.635Z,25.03
2023-04-26T09:23:44.593Z,24.84
2023-04-26T09:24:44.613Z,25.40
2023-04-26T09:25:44.648Z,27.92
2023-04-26T09:26:44.608Z,27.22
2023-04-26T09:27:44.580Z,28.39
2023-04-26T09:28:44.556Z,26.81
2023-04-26T09:29:44.561Z,26.26
2023-04-26T09:30:44.534Z,25.54
2023-04-26T09:31:46.361Z,24.73
2023-04-26T09:32:44.603Z,24.61
2023-04-26T09:33:44.510Z,24.85
2023-04-26T09:34:44.473Z,27.68
2023-04-26T09:35:44.561Z,28.37
2023-04-26T09:36:44.450Z,29.71
2023-04-26T09:37:57.513Z,31.10
2023-04-26T09:38:45.489Z,32.44
2023-04-26T09:39:44.431Z,33.43
2023-04-26T09:40:44.423Z,30.47
2023-04-26T09:41:44.398Z,29.95
2023-04-26T09:42:44.402Z,30.60
2023-04-26T09:43:44.428Z,30.83
2023-04-26T09:44:44.357Z,31.10
2023-04-26T09:45:44.349Z,31.54
2023-04-26T09:46:44.421Z,31.98
2023-04-26T09:47:44.372Z,32.80
2023-04-26T09:48:45.206Z,34.34
2023-04-26T09:49:44.346Z,35.56
2023-04-26T09:50:44.307Z,34.80
2023-04-26T09:51:44.294Z,34.61
2023-04-26T09:52:44.330Z,34.92
2023-04-26T09:53:44.280Z,35.24
2023-04-26T09:54:44.258Z,35.78
2023-04-26T09:55:44.279Z,37.14
2023-04-26T09:56:44.219Z,38.80
2023-04-26T09:57:44.215Z,39.47
2023-04-26T09:58:44.242Z,40.41
2023-04-26T09:59:44.182Z,40.61
2023-04-26T10:00:44.245Z,41.35
2023-04-26T10:01:44.195Z,41.85
2023-04-26T10:02:44.226Z,42.06
2023-04-26T10:03:44.251Z,41.94
2023-04-26T10:04:44.214Z,41.42
2023-04-26T10:05:47.165Z,40.81
2023-04-26T10:06:44.370Z,41.33
2023-04-26T10:07:44.104Z,40.92
2023-04-26T10:08:44.124Z,39.43
2023-04-26T10:09:44.090Z,36.85
2023-04-26T10:10:44.089Z,35.56
2023-04-26T10:11:44.077Z,36.07
2023-04-26T10:12:44.032Z,35.37
2023-04-26T10:13:44.033Z,35.06
2023-04-26T10:14:44.028Z,35.80
2023-04-26T10:15:44.035Z,36.00
2023-04-26T10:16:44.082Z,34.81
2023-04-26T10:17:44.016Z,33.28
2023-04-26T10:18:43.961Z,30.05
2023-04-26T10:19:43.978Z,29.11
2023-04-26T10:20:43.958Z,27.05
2023-04-26T10:21:43.950Z,25.98
2023-04-26T10:22:43.929Z,25.15
2023-04-26T10:23:43.901Z,26.52
2023-04-26T10:24:43.994Z,27.91
2023-04-26T10:25:44.219Z,29.46
2023-04-26T10:26:43.885Z,30.58
2023-04-26T10:27:43.911Z,31.02
2023-04-26T10:28:43.859Z,31.57
2023-04-26T10:29:43.864Z,32.83
2023-04-26T10:30:43.841Z,33.46
2023-04-26T10:31:44.027Z,33.56
2023-04-26T10:32:43.866Z,33.58
2023-04-26T10:33:43.808Z,34.20
2023-04-26T10:34:43.810Z,33.71
2023-04-26T10:35:43.767Z,34.20
2023-04-26T10:36:43.795Z,33.17
2023-04-26T10:37:43.797Z,33.58
2023-04-26T10:38:43.778Z,33.78
2023-04-26T10:39:43.726Z,33.97
2023-04-26T10:40:43.724Z,31.81
2023-04-26T10:41:43.735Z,28.98
2023-04-26T10:42:43.722Z,28.42
2023-04-26T10:43:43.688Z,25.67
2023-04-26T10:44:43.714Z,26.01
2023-04-26T10:45:43.707Z,27.37
2023-04-26T10:46:43.666Z,27.52
2023-04-26T10:47:43.724Z,28.96
2023-04-26T10:48:43.664Z,29.41
2023-04-26T10:49:43.614Z,30.86
2023-04-26T10:50:43.633Z,31.29
2023-04-26T10:51:43.588Z,31.80
2023-04-26T10:52:43.615Z,31.60
2023-04-26T10:53:43.597Z,31.71
2023-04-26T10:54:43.569Z,32.12
2023-04-26T10:55:43.638Z,31.80
2023-04-26T10:56:43.573Z,32.09
2023-04-26T10:57:43.552Z,32.18
2023-04-26T10:58:43.557Z,31.77
2023-04-26T10:59:54.260Z,32.07
2023-04-26T11:00:44.528Z,32.20
2023-04-26T11:01:43.580Z,32.62
2023-04-26T11:02:43.560Z,33.24
2023-04-26T11:03:43.784Z,33.46
2023-04-26T11:04:43.464Z,34.81
2023-04-26T11:05:43.463Z,34.93
2023-04-26T11:06:43.472Z,35.03
2023-04-26T11:07:43.424Z,35.34
2023-04-26T11:08:43.410Z,35.42
2023-04-26T11:09:43.425Z,34.70
2023-04-26T11:10:43.412Z,33.87
2023-04-26T11:11:43.388Z,33.46
2023-04-26T11:12:43.406Z,33.54
2023-04-26T11:13:43.384Z,32.93
2023-04-26T11:14:46.428Z,32.53
2023-04-26T11:15:43.322Z,32.71
2023-04-26T11:16:43.405Z,32.62
2023-04-26T11:17:43.329Z,31.71
2023-04-26T11:18:43.279Z,32.02
2023-04-26T11:19:43.272Z,32.12
2023-04-26T11:20:43.315Z,31.38
2023-04-26T11:21:43.262Z,30.41
2023-04-26T11:22:43.239Z,30.62
2023-04-26T11:23:43.226Z,30.43
2023-04-26T11:24:43.232Z,31.15
2023-04-26T11:25:43.231Z,31.57
2023-04-26T11:26:43.252Z,32.23
2023-04-26T11:27:43.224Z,32.93
2023-04-26T11:28:43.167Z,33.34
2023-04-26T11:29:43.155Z,33.04
2023-04-26T11:30:43.160Z,32.10
2023-04-26T11:31:43.182Z,32.41
2023-04-26T11:32:43.169Z,33.53
2023-04-26T11:33:43.185Z,33.40
2023-04-26T11:34:43.125Z,32.26
2023-04-26T11:35:43.110Z,30.71
2023-04-26T11:36:43.132Z,29.50
2023-04-26T11:37:43.082Z,30.32
2023-04-26T11:38:43.105Z,30.33
2023-04-26T11:39:43.083Z,31.06
2023-04-26T11:40:43.062Z,31.26
2023-04-26T11:41:43.018Z,31.28
2023-04-26T11:42:43.025Z,31.18
2023-04-26T11:43:43.099Z,29.90
2023-04-26T11:44:43.586Z,30.00
2023-04-26T11:45:43.027Z,30.64
2023-04-26T11:46:43.056Z,30.43
2023-04-26T11:47:43.007Z,30.54
2023-04-26T11:48:43.002Z,31.06
2023-04-26T11:49:42.967Z,31.99
2023-04-26T11:50:42.970Z,31.79
2023-04-26T11:51:43.159Z,31.35
2023-04-26T11:52:42.926Z,32.31
2023-04-26T11:53:42.942Z,33.43
2023-04-26T11:54:42.939Z,33.80
2023-04-26T11:55:42.870Z,32.54
2023-04-26T11:56:42.856Z,32.41
2023-04-26T11:57:42.868Z,31.77
2023-04-26T11:58:42.860Z,31.67
2023-04-26T11:59:42.831Z,30.55
2023-04-26T12:00:42.863Z,30.77
2023-04-26T12:01:42.856Z,30.90
2023-04-26T12:02:42.845Z,31.12
2023-04-26T12:03:42.999Z,31.54
2023-04-26T12:04:43.017Z,31.35
2023-04-26T12:05:42.751Z,31.86
2023-04-26T12:06:42.757Z,32.07
2023-04-26T12:07:42.736Z,31.48
2023-04-26T12:08:42.725Z,32.02
2023-04-26T12:09:42.712Z,32.83
2023-04-26T12:10:42.731Z,33.54
2023-04-26T12:11:42.899Z,32.95
2023-04-26T12:12:42.695Z,33.36
2023-04-26T12:13:42.651Z,34.17
2023-04-26T12:14:42.703Z,34.07
2023-04-26T12:15:42.636Z,33.87
2023-04-26T12:16:42.742Z,33.87
2023-04-26T12:17:42.672Z,32.83
2023-04-26T12:18:42.593Z,32.93
2023-04-26T12:19:42.602Z,32.41
2023-04-26T12:20:42.574Z,31.90
2023-04-26T12:21:42.714Z,32.53
2023-04-26T12:22:42.592Z,33.24
2023-04-26T12:23:42.546Z,34.26
2023-04-26T12:24:42.517Z,34.26
2023-04-26T12:25:42.531Z,33.94
2023-04-26T12:26:42.507Z,33.51
2023-04-26T12:27:42.530Z,32.89
2023-04-26T12:28:42.519Z,32.90
2023-04-26T12:29:42.478Z,33.11
2023-04-26T12:30:42.481Z,33.73
2023-04-26T12:31:42.620Z,34.04
2023-04-26T12:32:42.490Z,33.23
2023-04-26T12:33:42.508Z,33.01
2023-04-26T12:34:42.425Z,32.50
2023-04-26T12:35:42.448Z,32.79
2023-04-26T12:36:42.399Z,33.19
2023-04-26T12:37:42.401Z,33.01
2023-04-26T12:38:42.404Z,33.31
2023-04-26T12:39:42.388Z,33.73
2023-04-26T12:40:42.370Z,33.83
2023-04-26T12:41:42.353Z,33.56
2023-04-26T12:42:42.318Z,34.31
2023-04-26T12:43:42.342Z,34.63
2023-04-26T12:44:42.336Z,34.93
2023-04-26T12:45:42.356Z,35.03
2023-04-26T12:46:42.550Z,35.95
2023-04-26T12:47:42.336Z,36.04
2023-04-26T12:48:42.254Z,36.19
2023-04-26T12:49:42.284Z,36.58
2023-04-26T12:50:42.473Z,36.56
2023-04-26T12:51:42.216Z,35.83
2023-04-26T12:52:42.278Z,35.53